Terminal Aerodrome Forecast
Issued by NWS

Home | Current Version | Previous Version | Graphics & Text | Print | Product List | Glossary On
Versions: 1 2 3 4 5 6 7 8 9 10 11 12 13 14
000
FTUS43 KTOP 302300
TAFMHK
TAF
KMHK 302324Z 0100/0124 17011G18KT P6SM VCTS BKN050CB BKN100
     FM010200 18008KT 4SM TSRA BKN030 OVC050CB
     FM010500 18006KT 2SM TSRA BR SCT010 OVC040CB
     FM011100 18007KT 6SM SHRA VCTS SCT015 OVC040CB
     FM011500 18009KT P6SM SCT025 BKN040=

USA.gov is the U.S. government's official web portal to all federal, state and local government web resources and services.